Avon, Pennsylvania
Current Conditions -  °F | °C
As of 2:58 PM on Monday 22 Dec 2014 (Local Time) from KMUI Reporting Station
Overcast Overcast  
Wind Chill: 33°   Ceiling: 3600
Heat Index: 37°   Visibility: 10mi
Dew Point: 29°   Wind: 5mph
Humidity: 74%   Direction: 60°ENE
Pressure: 30.2"   Gusts: NA
Location:  40.2957°N, 76.4189°W
Report Text: KMUI 221958Z AUTO 06004KT 10SM SCT020 OVC036 03/M02 A3020 RMK AO2 SLP236 T00251018
Loading
Personal Weather Stations






























Interactive Weather Map New forecast layout! Learn more

10-Day Weather Forecast

Advertisements
Track Severe Weather on mobile